Flight Track Log - Related Links

Times and Time Zones

All times are in EST time to prevent confusion due to time zone crossing. See the N354LQ flight status page for this flight to view local times or setup timezone preferences in your user account.

Time Position Orientation Groundspeed Altitude Reporting Facility
EST Latitude Longitude Course Direction KTS MPH feet Rate Location/Type
Sun 10:38:45 AM 32.9833 -96.8333 337° Northwest 194 223 1,000  Level Dallas / Fort Worth TRACON
Sun 10:39:21 AM 33.0167 -96.8500 337° Northwest 248 285 2,000 2,189 Climbing Dallas / Fort Worth TRACON
Sun 10:41:13 AM 33.1158 -96.9186 330° Northwest 247 284 6,400 2,636 Climbing Fort Worth Center
Sun 10:42:14 AM 33.2042 -96.9642 337° Northwest 277 319 9,600 3,148 Climbing Fort Worth Center
Sun 10:43:15 AM 33.2792 -97.0081 334° Northwest 298 343 12,800 3,197 Climbing Fort Worth Center
Sun 10:44:16 AM 33.3678 -97.0297 348° North 325 374 16,100 2,902 Climbing Fort Worth Center
Sun 10:45:17 AM 33.4644 -97.0050 12° North 352 405 18,700 2,754 Climbing Fort Worth Center
Sun 10:46:18 AM 33.5650 -96.9844 10° North 364 419 21,700 2,607 Climbing Fort Worth Center
Sun 10:47:19 AM 33.6583 -96.9872 359° North 361 415 24,000 2,098 Climbing Fort Worth Center
Sun 10:48:21 AM 33.7642 -96.9942 357° North 379 436 26,000 1,951 Climbing Fort Worth Center
Sun 10:49:22 AM 33.8742 -97.0014 357° North 395 455 28,000 1,770 Climbing Fort Worth Center
Sun 10:50:23 AM 33.9914 -97.0050 359° North 418 481 29,600 984 Climbing Fort Worth Center
Sun 10:51:24 AM 34.1272 -97.0094 358° North 447 514 30,000 443 Climbing Fort Worth Center
Sun 10:52:25 AM 34.2603 -97.0111 359° North 474 545 30,500 541 Climbing Fort Worth Center
Sun 10:53:26 AM 34.3950 -97.0100 360° North 482 555 31,100 683 Climbing Fort Worth Center
Sun 10:54:28 AM 34.5306 -97.0192 357° North 486 559 31,900 439 Climbing Fort Worth Center
Sun 10:55:29 AM 34.6967 -97.0231 359° North 497 572 32,000 49 Climbing Fort Worth Center
Sun 10:56:30 AM 34.8369 -97.0306 357° North 500 575 32,000  Level Fort Worth Center
Sun 10:57:31 AM 34.9814 -97.0331 359° North 515 593 32,000  Level Fort Worth Center
Sun 10:58:32 AM 35.1222 -97.0344 360° North 513 590 32,000  Level Fort Worth Center
Sun 10:59:34 AM 35.2617 -97.0397 358° North 508 585 32,000  Level Fort Worth Center
Sun 11:00:35 AM 35.4003 -97.0425 359° North 506 582 32,000  Level Fort Worth Center
Sun 11:01:36 AM 35.5403 -97.0453 359° North 512 589 32,000  Level Fort Worth Center
Sun 11:02:28 AM 35.6806 -97.0497 359° North 512 589 32,000  Level Kansas City Center
Sun 11:03:29 AM 35.8236 -97.0531 359° North 516 594 32,000  Level Kansas City Center
Sun 11:04:30 AM 35.9661 -97.0600 358° North 515 593 32,000 -49 Level Kansas City Center
Sun 11:05:32 AM 36.1100 -97.0608 360° North 517 595 31,900 -1,122 Descending Kansas City Center
Sun 11:06:33 AM 36.2503 -97.0672 358° North 512 589 29,700 -2,410 Descending Kansas City Center
Sun 11:07:34 AM 36.3917 -97.0722 358° North 509 586 27,000 -2,488 Descending Kansas City Center
Sun 11:08:36 AM 36.5292 -97.0750 359° North 501 577 24,600 -2,683 Descending Kansas City Center
Sun 11:09:37 AM 36.6839 -97.1072 351° North 471 542 21,500 -2,754 Descending Kansas City Center
Sun 11:10:38 AM 36.8033 -97.1572 341° North 456 525 19,000 -1,902 Descending Kansas City Center
Sun 11:11:40 AM 36.9042 -97.1808 349° North 436 502 17,600 -1,612 Descending Kansas City Center
Sun 11:11:45 AM 36.9275 -97.1914 340° North 405 466 17,200 -2,111 Descending Kansas City Center
Sun 11:12:34 AM 37.0131 -97.2250 343° North 368 423 15,700 -1,821 Descending Kansas City Center
Sun 11:12:41 AM 37.0233 -97.2294 341° North 380 437 15,500 -1,700 Descending Kansas City Center
Sun 11:13:34 AM 37.1083 -97.2547 347° North 346 398 14,000 -1,672 Descending Kansas City Center
Sun 11:13:42 AM 37.1192 -97.2572 350° North 360 414 13,800 -1,967 Descending Kansas City Center
Sun 11:14:35 AM 37.1933 -97.2836 344° North 314 361 12,000 -2,032 Descending Kansas City Center
Sun 11:14:44 AM 37.2033 -97.2872 344° North 337 388 11,700 -2,262 Descending Kansas City Center
Sun 11:15:36 AM 37.2722 -97.3161 342° North 293 337 9,700 -2,262 Descending Kansas City Center
Sun 11:15:45 AM 37.2828 -97.3183 350° North 311 358 9,400 -2,800 Descending Kansas City Center
Sun 11:16:36 AM 37.3492 -97.3514 338° Northwest 287 330 6,900 -2,710 Descending Kansas City Center
Sun 11:16:47 AM 37.3586 -97.3544 346° North 300 345 6,600 -2,852 Descending Kansas City Center
Sun 11:17:37 AM 37.4219 -97.3850 339° North 278 320 4,000 -2,852 Descending Kansas City Center
Sun 11:17:48 AM 37.4300 -97.3875 346° North 288 331 3,700 -740 Descending Kansas City Center
Sun 11:18:50 AM 37.4947 -97.4186 339° North 207 238 3,100 -295 Descending Kansas City Center
Sun 11:19:50 AM 37.5392 -97.4433 336° Northwest 160 184 3,100  Level Kansas City Center
Sun 11:19:51 AM 37.5350 -97.4411 157° South 202 232 3,100 -387 Level Kansas City Center
Sun 11:20:52 AM 37.5800 -97.4547 347° North 170 196 2,700 -455 Descending Kansas City Center
Sun 11:20:57 AM 37.5822 -97.4553 349° North 133 153 2,600 -636 Descending Kansas City Center
Sun 11:21:58 AM 37.6164 -97.4394 20° North 122 140 2,000 -508 Descending Kansas City Center
Sun 11:22:55 AM 37.6431 -97.4247 24° Northeast 138 159 1,600 -421 Descending Kansas City Center
Sun 11:24:00 AM 37.6333 -97.4167 North  Level FlightAware Approximate
Sun 11:31:00 AM 37.6499 -97.4331 North  Level Estimated

Login

Don't have an account? Register now (free) for customized features, flight alerts, and more!